createdAt,value
2024-02-24T00:01:37.594Z,14.75
2024-02-24T00:04:39.580Z,14.11
2024-02-24T00:07:41.562Z,13.65
2024-02-24T00:10:43.695Z,14.22
2024-02-24T00:13:45.851Z,14.40
2024-02-24T00:16:47.871Z,14.79
2024-02-24T00:19:49.830Z,14.88
2024-02-24T00:22:51.727Z,14.88
2024-02-24T00:25:53.726Z,13.99
2024-02-24T00:28:55.646Z,14.61
2024-02-24T00:31:57.634Z,14.03
2024-02-24T00:34:59.551Z,14.65
2024-02-24T00:38:01.516Z,14.80
2024-02-24T00:41:03.541Z,14.87
2024-02-24T00:44:06.720Z,14.25
2024-02-24T00:47:08.791Z,13.92
2024-02-24T00:50:11.481Z,14.24
2024-02-24T00:53:13.515Z,14.44
2024-02-24T00:56:15.522Z,14.74
2024-02-24T00:59:17.614Z,14.43
2024-02-24T01:02:19.603Z,14.93
2024-02-24T01:05:21.614Z,15.30
2024-02-24T01:08:23.614Z,15.33
2024-02-24T01:11:25.590Z,14.79
2024-02-24T01:14:27.613Z,15.05
2024-02-24T01:17:29.569Z,15.14
2024-02-24T01:20:31.514Z,15.09
2024-02-24T01:23:34.135Z,15.04
2024-02-24T01:26:36.172Z,15.31
2024-02-24T01:29:38.825Z,15.02
2024-02-24T01:32:41.285Z,14.19
2024-02-24T01:35:43.357Z,14.48
2024-02-24T01:38:45.385Z,14.49
2024-02-24T01:41:47.349Z,14.43
2024-02-24T01:44:49.316Z,14.52
2024-02-24T01:47:51.981Z,14.97
2024-02-24T01:50:54.052Z,14.47
2024-02-24T01:53:56.113Z,14.45
2024-02-24T01:56:57.978Z,15.09
2024-02-24T01:59:59.911Z,14.75
2024-02-24T02:03:01.833Z,14.55
2024-02-24T02:06:04.462Z,14.54
2024-02-24T02:09:06.616Z,14.39
2024-02-24T02:12:08.768Z,14.40
2024-02-24T02:15:10.819Z,14.40
2024-02-24T02:18:13.343Z,14.80
2024-02-24T02:21:15.726Z,14.72
2024-02-24T02:24:17.775Z,14.90
2024-02-24T02:27:19.668Z,14.52
2024-02-24T02:30:21.549Z,14.72
2024-02-24T02:33:23.660Z,14.64
2024-02-24T02:36:25.772Z,14.46
2024-02-24T02:39:27.694Z,14.22
2024-02-24T02:42:29.596Z,14.34
2024-02-24T02:45:31.490Z,14.58
2024-02-24T02:48:33.596Z,14.27
2024-02-24T02:51:35.607Z,13.96
2024-02-24T02:54:37.536Z,14.21
2024-02-24T02:57:39.455Z,14.24
2024-02-24T03:00:41.338Z,13.57
2024-02-24T03:03:43.285Z,14.36
2024-02-24T03:06:45.275Z,14.73
2024-02-24T03:09:48.177Z,14.15
2024-02-24T03:12:50.072Z,13.81
2024-02-24T03:15:51.963Z,14.47
2024-02-24T03:18:53.976Z,14.65
2024-02-24T03:21:55.944Z,14.30
2024-02-24T03:24:57.894Z,14.60
2024-02-24T03:27:59.805Z,14.06
2024-02-24T03:31:02.573Z,14.45
2024-02-24T03:34:04.530Z,14.17
2024-02-24T03:37:06.505Z,14.53
2024-02-24T03:40:08.806Z,14.75
2024-02-24T03:43:10.760Z,14.56
2024-02-24T03:46:12.652Z,13.77
2024-02-24T03:49:14.707Z,13.67
2024-02-24T03:52:16.696Z,13.38
2024-02-24T03:55:18.615Z,13.25
2024-02-24T03:58:20.547Z,13.63
2024-02-24T04:01:22.481Z,12.90
2024-02-24T04:04:24.517Z,13.45
2024-02-24T04:07:26.442Z,13.70
2024-02-24T04:10:28.319Z,13.91
2024-02-24T04:13:30.218Z,13.50
2024-02-24T04:16:32.093Z,12.62
2024-02-24T04:19:34.054Z,13.22
2024-02-24T04:22:35.966Z,13.41
2024-02-24T04:25:37.836Z,12.91
2024-02-24T04:28:39.743Z,12.58
2024-02-24T04:31:41.602Z,13.70
2024-02-24T04:34:43.561Z,13.24
2024-02-24T04:37:45.512Z,13.13
2024-02-24T04:40:47.536Z,13.00
2024-02-24T04:43:49.425Z,12.63
2024-02-24T04:46:51.306Z,12.98
2024-02-24T04:49:53.361Z,12.88
2024-02-24T04:52:55.239Z,12.97
2024-02-24T04:55:57.175Z,13.07
2024-02-24T04:58:59.076Z,12.82
2024-02-24T05:02:00.990Z,13.00
2024-02-24T05:05:03.090Z,13.10
2024-02-24T05:08:05.155Z,13.32
2024-02-24T05:11:07.159Z,13.06
2024-02-24T05:14:09.189Z,12.88
2024-02-24T05:17:13.395Z,13.13
2024-02-24T05:20:15.471Z,12.66
2024-02-24T05:23:17.376Z,12.07
2024-02-24T05:26:22.934Z,12.13
2024-02-24T05:29:25.039Z,11.87
2024-02-24T05:32:26.976Z,12.91
2024-02-24T05:35:28.947Z,12.81
2024-02-24T05:38:30.878Z,12.89
2024-02-24T05:41:32.801Z,12.83
2024-02-24T05:44:34.974Z,13.15
2024-02-24T05:47:36.965Z,12.63
2024-02-24T05:50:39.020Z,12.26
2024-02-24T05:53:41.528Z,12.03
2024-02-24T05:56:43.537Z,12.81
2024-02-24T05:59:45.996Z,12.32
2024-02-24T06:02:47.969Z,12.15
2024-02-24T06:05:50.107Z,12.31
2024-02-24T06:08:52.359Z,11.79
2024-02-24T06:11:54.365Z,12.26
2024-02-24T06:14:56.392Z,12.42
2024-02-24T06:17:58.409Z,12.54
2024-02-24T06:21:00.420Z,12.33
2024-02-24T06:24:02.389Z,12.09
2024-02-24T06:27:04.371Z,12.84
2024-02-24T06:30:06.578Z,12.51
2024-02-24T06:33:08.908Z,12.48
2024-02-24T06:36:11.015Z,12.76
2024-02-24T06:39:12.887Z,12.60
2024-02-24T06:42:14.884Z,12.83
2024-02-24T06:45:16.863Z,13.48
2024-02-24T06:48:18.925Z,13.44
2024-02-24T06:51:21.889Z,13.36
2024-02-24T06:54:23.769Z,13.22
2024-02-24T06:57:25.673Z,12.99
2024-02-24T07:00:27.662Z,12.88
2024-02-24T07:03:31.232Z,12.41
2024-02-24T07:06:33.240Z,12.55
2024-02-24T07:09:35.252Z,12.64
2024-02-24T07:12:40.877Z,13.36
2024-02-24T07:15:45.263Z,13.06
2024-02-24T07:18:47.326Z,13.14
2024-02-24T07:21:49.477Z,13.23
2024-02-24T07:24:51.451Z,13.06
2024-02-24T07:27:53.374Z,12.87
2024-02-24T07:30:55.553Z,13.08
2024-02-24T07:33:57.638Z,13.30
2024-02-24T07:37:00.930Z,13.58
2024-02-24T07:40:02.920Z,13.32
2024-02-24T07:43:04.891Z,13.10
2024-02-24T07:46:06.834Z,12.83
2024-02-24T07:49:09.345Z,12.69
2024-02-24T07:52:11.315Z,12.81
2024-02-24T07:55:13.334Z,13.22
2024-02-24T07:58:15.273Z,13.39
2024-02-24T08:01:17.392Z,13.47
2024-02-24T08:04:20.282Z,13.54
2024-02-24T08:07:22.268Z,14.11
2024-02-24T08:10:24.162Z,14.00
2024-02-24T08:13:26.163Z,14.12
2024-02-24T08:16:28.552Z,13.97
2024-02-24T08:19:34.879Z,13.62
2024-02-24T08:22:36.992Z,13.77
2024-02-24T08:25:40.493Z,14.06
2024-02-24T08:28:42.644Z,13.89
2024-02-24T08:31:44.603Z,13.61
2024-02-24T08:34:46.689Z,13.50
2024-02-24T08:37:48.653Z,13.55
2024-02-24T08:40:50.604Z,13.98
2024-02-24T08:43:52.731Z,13.97
2024-02-24T08:46:54.700Z,14.18
2024-02-24T08:49:56.726Z,14.58
2024-02-24T08:52:58.688Z,13.66
2024-02-24T08:56:01.414Z,14.55
2024-02-24T08:59:03.327Z,14.70
2024-02-24T09:02:05.712Z,14.88
2024-02-24T09:05:07.847Z,14.99
2024-02-24T09:08:09.833Z,15.15
2024-02-24T09:11:12.295Z,14.79
2024-02-24T09:14:14.626Z,14.71
2024-02-24T09:17:16.746Z,14.49
2024-02-24T09:20:18.778Z,14.80
2024-02-24T09:23:20.781Z,14.92
2024-02-24T09:26:22.901Z,15.59
2024-02-24T09:29:25.004Z,15.63
2024-02-24T09:32:26.932Z,15.85
2024-02-24T09:35:28.977Z,16.24
2024-02-24T09:38:30.960Z,16.50
2024-02-24T09:41:32.988Z,16.88
2024-02-24T09:44:35.014Z,16.44
2024-02-24T09:47:36.969Z,15.89
2024-02-24T09:50:39.101Z,16.50
2024-02-24T09:53:41.404Z,15.51
2024-02-24T09:56:43.467Z,15.82
2024-02-24T09:59:45.742Z,16.76
2024-02-24T10:02:47.812Z,16.95
2024-02-24T10:05:52.767Z,16.41
2024-02-24T10:08:54.862Z,16.93
2024-02-24T10:11:56.962Z,16.53
2024-02-24T10:14:58.917Z,16.95
2024-02-24T10:18:01.461Z,16.71
2024-02-24T10:21:03.805Z,17.02
2024-02-24T10:24:05.805Z,16.87
2024-02-24T10:27:07.764Z,16.92
2024-02-24T10:30:10.247Z,16.79
2024-02-24T10:33:12.598Z,16.38
2024-02-24T10:36:15.205Z,16.47
2024-02-24T10:39:17.537Z,16.20
2024-02-24T10:42:19.605Z,16.28
2024-02-24T10:45:21.605Z,16.82
2024-02-24T10:48:23.861Z,17.03
2024-02-24T10:51:25.882Z,17.09
2024-02-24T10:54:30.581Z,17.25
2024-02-24T10:57:33.108Z,17.03
2024-02-24T11:00:38.039Z,17.11
2024-02-24T11:03:40.218Z,17.22
2024-02-24T11:06:53.094Z,16.72
2024-02-24T11:09:55.552Z,16.59
2024-02-24T11:12:57.787Z,16.49
2024-02-24T11:16:00.678Z,16.16
2024-02-24T11:19:02.797Z,16.47
2024-02-24T11:22:06.589Z,16.54
2024-02-24T11:25:08.496Z,17.11
2024-02-24T11:28:10.396Z,16.78
2024-02-24T11:31:18.919Z,16.97
2024-02-24T11:34:20.898Z,16.65
2024-02-24T11:37:22.854Z,16.23
2024-02-24T11:40:24.787Z,16.53
2024-02-24T11:43:26.721Z,16.64
2024-02-24T11:46:28.701Z,16.46
2024-02-24T11:49:30.829Z,16.70
2024-02-24T11:52:32.790Z,16.88
2024-02-24T11:55:35.137Z,16.87
2024-02-24T11:58:37.079Z,16.96
2024-02-24T12:01:38.961Z,16.33
2024-02-24T12:04:41.043Z,16.68
2024-02-24T12:07:43.879Z,16.65
2024-02-24T12:10:45.867Z,16.96
2024-02-24T12:13:48.103Z,16.69
2024-02-24T12:16:50.006Z,17.45
2024-02-24T12:19:52.007Z,17.50
2024-02-24T12:22:53.907Z,17.55
2024-02-24T12:25:55.807Z,17.37
2024-02-24T12:28:57.729Z,16.98
2024-02-24T12:31:59.646Z,17.38
2024-02-24T12:35:05.520Z,16.61
2024-02-24T12:38:08.145Z,15.60
2024-02-24T12:41:13.573Z,16.82
2024-02-24T12:44:15.747Z,17.35
2024-02-24T12:47:17.891Z,16.42
2024-02-24T12:50:20.264Z,16.85
2024-02-24T12:53:22.957Z,16.33
2024-02-24T12:56:24.940Z,16.25
2024-02-24T12:59:29.766Z,16.19
2024-02-24T13:02:32.009Z,16.13
2024-02-24T13:05:34.844Z,16.04
2024-02-24T13:08:36.962Z,16.51
2024-02-24T13:11:38.985Z,16.85
2024-02-24T13:14:41.071Z,16.62
2024-02-24T13:17:43.083Z,17.37
2024-02-24T13:20:45.047Z,17.45
2024-02-24T13:23:47.037Z,17.06
2024-02-24T13:26:49.053Z,16.49
2024-02-24T13:29:52.570Z,17.57
2024-02-24T13:32:54.656Z,17.19
2024-02-24T13:35:56.935Z,16.16
2024-02-24T13:38:58.997Z,16.66
2024-02-24T13:42:01.075Z,16.84
2024-02-24T13:45:03.122Z,16.96
2024-02-24T13:48:05.295Z,16.32
2024-02-24T13:51:07.421Z,17.16
2024-02-24T13:54:09.385Z,17.63
2024-02-24T13:57:11.461Z,17.22
2024-02-24T14:00:13.696Z,16.95
2024-02-24T14:03:15.715Z,17.57
2024-02-24T14:06:20.362Z,17.44
2024-02-24T14:09:24.003Z,17.64
2024-02-24T14:12:25.993Z,17.74
2024-02-24T14:15:27.947Z,17.06
2024-02-24T14:18:30.248Z,16.63
2024-02-24T14:21:32.306Z,17.61
2024-02-24T14:24:34.259Z,17.62
2024-02-24T14:27:37.165Z,17.32
2024-02-24T14:30:39.460Z,17.25
2024-02-24T14:33:41.644Z,17.09
2024-02-24T14:36:43.645Z,17.30
2024-02-24T14:39:45.511Z,16.69
2024-02-24T14:42:47.441Z,17.20
2024-02-24T14:45:49.365Z,16.87
2024-02-24T14:48:52.449Z,17.69
2024-02-24T14:51:55.712Z,17.48
2024-02-24T14:54:57.606Z,16.88
2024-02-24T14:57:59.523Z,17.55
2024-02-24T15:01:01.546Z,16.62
2024-02-24T15:04:03.611Z,16.77
2024-02-24T15:07:05.657Z,17.35
2024-02-24T15:10:07.646Z,16.79
2024-02-24T15:13:09.644Z,17.20
2024-02-24T15:16:11.635Z,15.47
2024-02-24T15:19:14.130Z,15.95
2024-02-24T15:22:16.038Z,16.46
2024-02-24T15:25:18.007Z,17.04
2024-02-24T15:28:19.976Z,16.70
2024-02-24T15:31:23.366Z,16.66
2024-02-24T15:34:26.529Z,16.23
2024-02-24T15:37:28.612Z,16.13
2024-02-24T15:40:33.555Z,16.57
2024-02-24T15:43:36.457Z,17.03
2024-02-24T15:46:38.316Z,16.86
2024-02-24T15:49:41.318Z,16.23
2024-02-24T15:52:45.022Z,16.48
2024-02-24T15:55:46.999Z,16.40
2024-02-24T15:58:49.010Z,16.15
2024-02-24T16:01:50.974Z,16.27
2024-02-24T16:04:52.983Z,16.56
2024-02-24T16:07:54.887Z,16.07
2024-02-24T16:10:56.875Z,16.49
2024-02-24T16:14:00.396Z,16.45
2024-02-24T16:17:04.556Z,16.20
2024-02-24T16:20:07.637Z,16.24
2024-02-24T16:23:09.654Z,16.45
2024-02-24T16:26:14.430Z,16.35
2024-02-24T16:29:16.405Z,15.66
2024-02-24T16:32:18.341Z,15.82
2024-02-24T16:35:20.274Z,15.98
2024-02-24T16:38:22.236Z,15.93
2024-02-24T16:41:24.411Z,15.28
2024-02-24T16:44:26.708Z,15.40
2024-02-24T16:50:47.651Z,15.35
2024-02-24T16:53:49.605Z,15.52
2024-02-24T16:56:51.767Z,15.92
2024-02-24T16:59:53.710Z,15.36
2024-02-24T17:02:55.928Z,15.41
2024-02-24T17:05:58.749Z,15.75
2024-02-24T17:09:00.787Z,15.69
2024-02-24T17:12:04.023Z,15.69
2024-02-24T17:15:08.668Z,15.58
2024-02-24T17:18:18.322Z,15.82
2024-02-24T17:21:23.292Z,15.63
2024-02-24T17:24:25.317Z,15.78
2024-02-24T17:27:27.485Z,15.73
2024-02-24T17:30:29.351Z,15.69
2024-02-24T17:33:31.326Z,15.79
2024-02-24T17:36:39.856Z,15.52
2024-02-24T17:39:43.591Z,15.76
2024-02-24T17:42:45.479Z,15.41
2024-02-24T17:45:47.391Z,15.61
2024-02-24T17:48:49.460Z,15.37
2024-02-24T17:51:52.116Z,15.20
2024-02-24T17:54:54.349Z,15.57
2024-02-24T17:57:56.269Z,15.40
2024-02-24T18:00:58.239Z,15.27
2024-02-24T18:04:01.327Z,15.24
2024-02-24T18:07:03.391Z,14.75
2024-02-24T18:10:05.564Z,14.71
2024-02-24T18:13:07.563Z,15.01
2024-02-24T18:16:12.304Z,14.62
2024-02-24T18:19:14.323Z,14.72
2024-02-24T18:22:16.346Z,14.04
2024-02-24T18:25:18.348Z,14.27
2024-02-24T18:28:20.350Z,14.26
2024-02-24T18:31:22.319Z,14.29
2024-02-24T18:34:24.304Z,14.72
2024-02-24T18:37:26.259Z,14.22
2024-02-24T18:40:28.267Z,14.81
2024-02-24T18:43:30.217Z,14.26
2024-02-24T18:46:32.297Z,14.39
2024-02-24T18:49:36.101Z,14.75
2024-02-24T18:52:41.452Z,14.84
2024-02-24T18:55:43.468Z,13.62
2024-02-24T18:58:45.476Z,14.36
2024-02-24T19:01:47.596Z,14.60
2024-02-24T19:04:51.601Z,14.16
2024-02-24T19:07:53.929Z,14.99
2024-02-24T19:10:56.072Z,14.83
2024-02-24T19:14:00.932Z,14.31
2024-02-24T19:17:03.047Z,14.34
2024-02-24T19:20:05.786Z,13.95
2024-02-24T19:23:08.018Z,13.45
2024-02-24T19:26:10.251Z,13.89
2024-02-24T19:29:12.451Z,14.14
2024-02-24T19:32:14.375Z,14.01
2024-02-24T19:35:16.350Z,13.94
2024-02-24T19:38:18.461Z,13.18
2024-02-24T19:41:20.486Z,14.21
2024-02-24T19:44:22.821Z,14.04
2024-02-24T19:47:25.466Z,14.34
2024-02-24T19:50:28.415Z,13.71
2024-02-24T19:53:30.491Z,14.31
2024-02-24T19:56:32.930Z,14.23
2024-02-24T19:59:40.050Z,13.85
2024-02-24T20:02:42.190Z,13.75
2024-02-24T20:05:44.364Z,14.29
2024-02-24T20:08:46.444Z,14.21
2024-02-24T20:11:48.520Z,13.90
2024-02-24T20:14:50.875Z,13.45
2024-02-24T20:17:53.042Z,13.08
2024-02-24T20:20:58.890Z,13.17
2024-02-24T20:24:00.996Z,13.67
2024-02-24T20:27:03.512Z,13.66
2024-02-24T20:30:05.796Z,14.15
2024-02-24T20:33:08.765Z,13.36
2024-02-24T20:36:10.965Z,13.31
2024-02-24T20:39:14.431Z,12.96
2024-02-24T20:42:16.838Z,13.91
2024-02-24T20:45:18.964Z,13.92
2024-02-24T20:48:21.477Z,12.81
2024-02-24T20:51:23.649Z,13.51
2024-02-24T20:54:25.730Z,13.57
2024-02-24T20:57:27.689Z,13.04
2024-02-24T21:00:29.557Z,12.50
2024-02-24T21:03:31.675Z,13.21
2024-02-24T21:06:33.730Z,13.20
2024-02-24T21:09:35.874Z,12.93
2024-02-24T21:12:37.800Z,12.43
2024-02-24T21:15:39.752Z,12.96
2024-02-24T21:18:41.905Z,12.91
2024-02-24T21:21:43.973Z,13.00
2024-02-24T21:24:45.838Z,13.18
2024-02-24T21:27:47.875Z,12.77
2024-02-24T21:30:49.817Z,12.45
2024-02-24T21:33:51.927Z,12.79
2024-02-24T21:36:53.917Z,13.01
2024-02-24T21:39:57.184Z,12.46
2024-02-24T21:43:00.092Z,11.98
2024-02-24T21:46:01.993Z,12.38
2024-02-24T21:49:04.676Z,12.39
2024-02-24T21:52:08.475Z,12.26
2024-02-24T21:55:10.725Z,12.46
2024-02-24T21:58:12.601Z,12.63
2024-02-24T22:01:16.650Z,12.66
2024-02-24T22:04:18.745Z,12.29
2024-02-24T22:07:22.710Z,12.59
2024-02-24T22:10:25.101Z,12.40
2024-02-24T22:13:27.005Z,12.23
2024-02-24T22:16:28.858Z,12.65
2024-02-24T22:19:32.741Z,12.63
2024-02-24T22:22:34.804Z,12.93
2024-02-24T22:25:36.713Z,12.37
2024-02-24T22:28:38.598Z,12.41
2024-02-24T22:31:41.642Z,12.71
2024-02-24T22:34:43.576Z,12.65
2024-02-24T22:37:45.564Z,12.80
2024-02-24T22:40:48.137Z,12.55
2024-02-24T22:43:50.300Z,12.65
2024-02-24T22:46:52.348Z,13.17
2024-02-24T22:49:54.293Z,12.61
2024-02-24T22:52:56.218Z,12.71
2024-02-24T22:55:58.119Z,12.47
2024-02-24T22:59:02.404Z,12.74
2024-02-24T23:02:04.951Z,12.60
2024-02-24T23:05:07.045Z,12.61
2024-02-24T23:08:09.250Z,12.86
2024-02-24T23:11:16.698Z,12.46
2024-02-24T23:14:24.294Z,12.73
2024-02-24T23:17:26.474Z,12.32
2024-02-24T23:20:28.543Z,12.55
2024-02-24T23:23:30.471Z,12.31
2024-02-24T23:26:32.718Z,12.84
2024-02-24T23:29:34.800Z,11.98
2024-02-24T23:32:36.805Z,12.32
2024-02-24T23:35:38.769Z,12.54
2024-02-24T23:38:40.797Z,13.11
2024-02-24T23:41:42.768Z,12.73
2024-02-24T23:44:44.950Z,11.80
2024-02-24T23:47:47.067Z,11.78
2024-02-24T23:50:49.052Z,12.27
2024-02-24T23:53:51.717Z,12.09
2024-02-24T23:56:54.027Z,12.11
2024-02-24T23:59:55.977Z,11.94
